Pagrindinis puslapis
METAR-TAF:

METAR-TAF

Oro uostai :

Mansaniljas, Kuba

platuma: 20-20N, ilguma: 077-07W, Aukštis: 60 m

METAR: trūkstamas

Laikas: 00:41 (04:41 UTC)

Prognozė

Ataskaita buvo paskelbta 11 valandos ir 41 minutes, ne 17:00 UTC
Prognozė galioja nuo 04 metu 18 UTC su 05 metu 06 UTC
Vėjas 10 kt iš Rytų
Matomumas: 9000 m
Išsisklaidę debesys ne aukštis 2000 ft
Laikinai
nuo 04 metu 19 UTC su 04 metu 24 UTC
Vėjas 10 kt nuo kintamojo kryptimis
Matomumas: 4000 m
Mažai debesys ne aukštis 2000 ft, Liūtiniai kamuoliniai debesys.
Su prošvaistėmis ne aukštis 2000 ft
perkūnija, lietus
Tapsmas
nuo 05 metu 01 UTC su 05 metu 03 UTC
Vėjas 3 kt nuo kintamojo kryptimis

TAF: MUMZ 041700Z 0418/0506 09010KT 9000 SCT020 TEMPO 0419/0424 VRB10KT 4000 TSRA FEW020CB BKN020 BECMG 0501/0503 VRB03KT

Orai ataskaitas ir orų prognozės (METAR, TAF).

turimą stotys yra geltonos ir raudonos taškus žemėlapyje.

Perkelti pele per norėdami pamatyti stoties vardą.

Tada spustelėkite, norėdami matyti oro stebėjimo ir prognozės.

Norėdami pakeisti žemėlapį: spustelėkite ant žalios mygtukų su juodo kryžiaus žemyn,; žalią mygtuką su brūkšneliu, jei norite nutolinti; arba žalių rodyklių gretimoms žemėlapius.


METAR-TAF: